createdAt,value
2018-09-08T00:00:13.497Z,12.07
2018-09-08T00:02:44.226Z,13.43
2018-09-08T00:05:14.755Z,11.93
2018-09-08T00:07:45.241Z,12.73
2018-09-08T00:10:15.752Z,13.03
2018-09-08T00:12:46.264Z,13.90
2018-09-08T00:15:22.721Z,14.43
2018-09-08T00:17:58.507Z,14.97
2018-09-08T00:20:34.100Z,13.20
2018-09-08T00:23:10.272Z,14.10
2018-09-08T00:25:46.132Z,13.30
2018-09-08T00:28:24.680Z,13.63
2018-09-08T00:30:55.229Z,13.13
2018-09-08T00:33:25.752Z,13.50
2018-09-08T00:35:56.679Z,13.00
2018-09-08T00:38:27.302Z,14.70
2018-09-08T00:40:57.972Z,12.47
2018-09-08T00:43:28.310Z,12.40
2018-09-08T00:45:58.922Z,14.10
2018-09-08T00:48:29.550Z,13.67
2018-09-08T00:51:00.467Z,14.00
2018-09-08T00:53:31.739Z,14.77
2018-09-08T00:56:02.134Z,14.33
2018-09-08T00:58:32.396Z,13.97
2018-09-08T01:01:02.932Z,14.10
2018-09-08T01:03:35.070Z,14.10
2018-09-08T01:06:06.440Z,14.77
2018-09-08T01:08:36.723Z,13.70
2018-09-08T01:11:07.297Z,14.27
2018-09-08T01:13:38.007Z,12.97
2018-09-08T01:16:08.528Z,14.37
2018-09-08T01:18:39.090Z,13.40
2018-09-08T01:21:10.215Z,12.97
2018-09-08T01:23:41.118Z,12.87
2018-09-08T01:26:11.658Z,13.17
2018-09-08T01:28:42.513Z,13.40
2018-09-08T01:31:13.549Z,12.73
2018-09-08T01:33:43.836Z,13.50
2018-09-08T01:36:14.346Z,14.50
2018-09-08T01:38:45.496Z,14.03
2018-09-08T01:41:16.028Z,13.80
2018-09-08T01:43:46.505Z,14.03
2018-09-08T01:46:17.084Z,14.50
2018-09-08T01:48:47.740Z,13.10
2018-09-08T01:51:18.458Z,13.63
2018-09-08T01:53:48.980Z,13.73
2018-09-08T01:56:19.488Z,14.00
2018-09-08T01:58:49.996Z,14.00
2018-09-08T02:01:20.524Z,14.20
2018-09-08T02:03:51.106Z,13.83
2018-09-08T02:06:21.681Z,13.60
2018-09-08T02:08:52.191Z,15.00
2018-09-08T02:11:22.427Z,14.13
2018-09-08T02:13:52.695Z,14.80
2018-09-08T02:16:23.431Z,14.83
2018-09-08T02:18:54.357Z,15.20
2018-09-08T02:21:25.148Z,15.40
2018-09-08T02:23:55.792Z,16.80
2018-09-08T02:26:26.382Z,15.80
2018-09-08T02:28:56.872Z,15.93
2018-09-08T02:31:27.237Z,16.10
2018-09-08T02:33:57.789Z,17.17
2018-09-08T02:36:28.314Z,15.83
2018-09-08T02:38:58.837Z,14.80
2018-09-08T02:41:29.335Z,15.70
2018-09-08T02:43:59.824Z,16.10
2018-09-08T02:46:30.066Z,17.13
2018-09-08T02:49:00.313Z,16.17
2018-09-08T02:51:29.988Z,15.20
2018-09-08T02:53:59.476Z,16.53
2018-09-08T02:56:28.700Z,15.67
2018-09-08T02:58:58.071Z,15.40
2018-09-08T03:01:27.469Z,14.80
2018-09-08T03:03:56.808Z,15.47
2018-09-08T03:06:26.168Z,15.80
2018-09-08T03:08:55.517Z,15.50
2018-09-08T03:11:25.433Z,16.03
2018-09-08T03:13:55.184Z,15.30
2018-09-08T03:16:24.525Z,17.60
2018-09-08T03:18:54.018Z,15.70
2018-09-08T03:21:23.855Z,16.70
2018-09-08T03:23:52.912Z,16.03
2018-09-08T03:26:22.912Z,15.47
2018-09-08T03:28:52.262Z,16.47
2018-09-08T03:31:21.666Z,14.23
2018-09-08T03:33:51.007Z,14.13
2018-09-08T03:36:20.352Z,13.90
2018-09-08T03:38:49.704Z,13.70
2018-09-08T03:41:19.208Z,14.90
2018-09-08T03:43:48.543Z,15.13
2018-09-08T03:46:17.988Z,14.13
2018-09-08T03:48:47.520Z,14.33
2018-09-08T03:51:16.843Z,14.60
2018-09-08T03:53:46.639Z,14.27
2018-09-08T03:56:16.004Z,14.90
2018-09-08T03:58:45.352Z,15.47
2018-09-08T04:01:14.717Z,15.03
2018-09-08T04:03:45.214Z,14.03
2018-09-08T04:06:15.454Z,15.03
2018-09-08T04:08:46.081Z,14.13
2018-09-08T04:11:16.806Z,14.40
2018-09-08T04:13:47.484Z,15.50
2018-09-08T04:16:17.864Z,15.00
2018-09-08T04:18:48.516Z,13.73
2018-09-08T04:21:18.917Z,13.43
2018-09-08T04:23:49.444Z,15.20
2018-09-08T04:26:19.813Z,13.23
2018-09-08T04:28:50.395Z,14.20
2018-09-08T04:31:20.800Z,14.63
2018-09-08T04:33:51.307Z,14.43
2018-09-08T04:36:21.532Z,13.83
2018-09-08T04:38:52.145Z,14.30
2018-09-08T04:41:22.707Z,14.47
2018-09-08T04:43:53.684Z,14.03
2018-09-08T04:46:24.180Z,14.40
2018-09-08T04:48:54.777Z,13.00
2018-09-08T04:51:26.630Z,13.63
2018-09-08T04:53:57.313Z,14.57
2018-09-08T04:56:29.977Z,14.57
2018-09-08T04:59:01.075Z,13.60
2018-09-08T05:01:31.714Z,13.10
2018-09-08T05:04:02.267Z,13.13
2018-09-08T05:06:32.818Z,12.47
2018-09-08T05:09:04.092Z,13.43
2018-09-08T05:11:34.816Z,12.13
2018-09-08T05:14:05.604Z,12.40
2018-09-08T05:16:35.880Z,12.20
2018-09-08T05:19:06.427Z,13.17
2018-09-08T05:21:37.487Z,11.40
2018-09-08T05:24:08.101Z,12.13
2018-09-08T05:26:38.677Z,12.60
2018-09-08T05:29:10.236Z,11.37
2018-09-08T05:31:41.053Z,11.70
2018-09-08T05:34:11.645Z,12.20
2018-09-08T05:36:46.971Z,11.40
2018-09-08T05:39:17.405Z,11.90
2018-09-08T05:41:47.936Z,12.40
2018-09-08T05:44:18.449Z,13.40
2018-09-08T05:46:49.192Z,13.60
2018-09-08T05:49:20.036Z,11.77
2018-09-08T05:51:51.203Z,13.00
2018-09-08T05:54:21.761Z,12.90
2018-09-08T05:56:52.125Z,12.60
2018-09-08T05:59:22.733Z,12.50
2018-09-08T06:01:53.793Z,11.67
2018-09-08T06:04:25.093Z,11.87
2018-09-08T06:07:04.395Z,11.30
2018-09-08T06:09:35.934Z,11.57
2018-09-08T06:12:06.905Z,10.43
2018-09-08T06:14:37.124Z,11.60
2018-09-08T06:17:07.720Z,10.13
2018-09-08T06:19:38.148Z,10.67
2018-09-08T06:22:09.071Z,10.70
2018-09-08T06:24:39.299Z,9.80
2018-09-08T06:27:09.692Z,10.37
2018-09-08T06:29:40.216Z,10.30
2018-09-08T06:32:10.686Z,9.70
2018-09-08T06:34:41.181Z,10.77
2018-09-08T06:37:14.054Z,9.90
2018-09-08T06:39:44.583Z,10.20
2018-09-08T06:42:14.939Z,9.97
2018-09-08T06:44:45.265Z,11.03
2018-09-08T06:47:15.660Z,8.53
2018-09-08T06:49:45.942Z,9.63
2018-09-08T06:52:16.593Z,8.63
2018-09-08T06:54:47.447Z,8.40
2018-09-08T06:57:18.168Z,9.53
2018-09-08T06:59:48.682Z,9.07
2018-09-08T07:02:18.900Z,8.63
2018-09-08T07:04:49.398Z,9.50
2018-09-08T07:07:19.865Z,10.80
2018-09-08T07:09:51.202Z,10.50
2018-09-08T07:12:21.766Z,9.90
2018-09-08T07:14:52.504Z,11.03
2018-09-08T07:17:28.845Z,10.40
2018-09-08T07:20:00.597Z,10.27
2018-09-08T07:22:35.189Z,10.13
2018-09-08T07:25:08.529Z,12.77
2018-09-08T07:27:38.756Z,10.80
2018-09-08T07:30:09.044Z,12.57
2018-09-08T07:32:39.697Z,12.83
2018-09-08T07:35:10.665Z,14.67
2018-09-08T07:37:43.152Z,14.07
2018-09-08T07:40:13.457Z,14.20
2018-09-08T07:42:44.369Z,15.57
2018-09-08T07:45:16.650Z,14.37
2018-09-08T07:47:49.308Z,15.57
2018-09-08T07:50:19.852Z,15.30
2018-09-08T07:52:50.403Z,12.13
2018-09-08T07:55:20.680Z,14.40
2018-09-08T07:57:51.203Z,16.07
2018-09-08T08:00:21.724Z,16.37
2018-09-08T08:02:52.237Z,16.33
2018-09-08T08:05:22.568Z,15.17
2018-09-08T08:07:53.444Z,16.20
2018-09-08T08:10:24.465Z,14.63
2018-09-08T08:12:55.122Z,15.37
2018-09-08T08:15:25.374Z,16.60
2018-09-08T08:17:55.958Z,15.07
2018-09-08T08:20:26.598Z,15.97
2018-09-08T08:22:57.680Z,13.63
2018-09-08T08:25:28.290Z,12.37
2018-09-08T08:27:59.284Z,13.23
2018-09-08T08:30:30.062Z,11.10
2018-09-08T08:33:00.482Z,10.30
2018-09-08T08:35:31.101Z,10.30
2018-09-08T08:38:02.199Z,11.07
2018-09-08T08:40:32.726Z,12.03
2018-09-08T08:43:04.034Z,10.20
2018-09-08T08:45:34.562Z,11.67
2018-09-08T08:48:05.645Z,10.77
2018-09-08T08:50:47.520Z,11.27
2018-09-08T08:53:31.961Z,15.30
2018-09-08T08:56:02.468Z,11.53
2018-09-08T08:58:34.564Z,11.80
2018-09-08T09:01:07.571Z,11.40
2018-09-08T09:03:38.545Z,9.70
2018-09-08T09:06:11.604Z,9.60
2018-09-08T09:08:42.534Z,7.83
2018-09-08T09:11:13.570Z,8.13
2018-09-08T09:13:44.355Z,7.13
2018-09-08T09:16:17.220Z,7.40
2018-09-08T09:18:59.364Z,7.50
2018-09-08T09:21:41.277Z,7.17
2018-09-08T09:24:24.560Z,6.87
2018-09-08T09:26:54.933Z,7.10
2018-09-08T09:29:25.616Z,6.07
2018-09-08T09:31:56.865Z,6.50
2018-09-08T09:34:27.512Z,5.67
2018-09-08T09:36:58.307Z,5.37
2018-09-08T09:39:28.861Z,6.57
2018-09-08T09:41:59.075Z,6.00
2018-09-08T09:44:30.527Z,5.70
2018-09-08T09:47:01.056Z,6.03
2018-09-08T09:49:31.742Z,6.17
2018-09-08T09:52:02.314Z,6.40
2018-09-08T09:54:32.835Z,6.20
2018-09-08T09:57:03.943Z,6.10
2018-09-08T09:59:34.497Z,5.20
2018-09-08T10:02:10.454Z,5.77
2018-09-08T10:04:40.709Z,6.20
2018-09-08T10:07:11.758Z,5.73
2018-09-08T10:09:41.992Z,5.40
2018-09-08T10:12:12.843Z,5.77
2018-09-08T10:14:43.360Z,5.57
2018-09-08T10:17:14.150Z,5.50
2018-09-08T10:19:44.856Z,5.40
2018-09-08T10:22:15.405Z,5.67
2018-09-08T10:24:45.942Z,5.83
2018-09-08T10:27:20.791Z,5.40
2018-09-08T10:29:52.182Z,5.50
2018-09-08T10:32:23.738Z,5.40
2018-09-08T10:34:54.678Z,5.97
2018-09-08T10:37:25.782Z,5.50
2018-09-08T10:39:56.285Z,6.00
2018-09-08T10:42:26.929Z,5.07
2018-09-08T10:44:57.687Z,5.63
2018-09-08T10:47:28.184Z,4.73
2018-09-08T10:49:58.810Z,5.20
2018-09-08T10:52:33.899Z,5.10
2018-09-08T10:55:04.616Z,5.27
2018-09-08T10:57:35.277Z,4.20
2018-09-08T11:00:07.132Z,4.90
2018-09-08T11:02:39.241Z,4.50
2018-09-08T11:05:13.047Z,5.40
2018-09-08T11:07:45.459Z,5.20
2018-09-08T11:10:15.952Z,4.77
2018-09-08T11:12:48.672Z,4.20
2018-09-08T11:15:20.920Z,4.37
2018-09-08T11:17:52.717Z,4.07
2018-09-08T11:20:23.011Z,4.10
2018-09-08T11:22:53.511Z,4.40
2018-09-08T11:25:27.054Z,4.30
2018-09-08T11:27:58.046Z,4.33
2018-09-08T11:30:29.010Z,4.10
2018-09-08T11:32:59.695Z,3.83
2018-09-08T11:35:30.465Z,4.47
2018-09-08T11:38:01.041Z,3.80
2018-09-08T11:40:31.432Z,4.50
2018-09-08T11:43:02.456Z,4.37
2018-09-08T11:45:32.781Z,4.20
2018-09-08T11:48:03.555Z,3.60
2018-09-08T11:50:34.092Z,4.40
2018-09-08T11:53:04.749Z,3.20
2018-09-08T11:55:35.451Z,3.80
2018-09-08T11:58:06.564Z,3.67
2018-09-08T12:00:37.196Z,3.87
2018-09-08T12:03:10.642Z,3.70
2018-09-08T12:05:41.067Z,3.73
2018-09-08T12:08:11.722Z,4.10
2018-09-08T12:10:42.530Z,3.60
2018-09-08T12:13:13.307Z,4.27
2018-09-08T12:15:43.860Z,4.07
2018-09-08T12:18:14.135Z,3.13
2018-09-08T12:20:45.327Z,3.90
2018-09-08T12:23:16.332Z,3.57
2018-09-08T12:25:47.489Z,3.37
2018-09-08T12:28:17.787Z,3.60
2018-09-08T12:30:48.491Z,3.33
2018-09-08T12:33:18.930Z,3.13
2018-09-08T12:35:50.016Z,3.53
2018-09-08T12:38:20.584Z,3.30
2018-09-08T12:40:51.115Z,3.40
2018-09-08T12:43:21.464Z,4.37
2018-09-08T12:45:51.782Z,3.93
2018-09-08T12:48:22.844Z,4.00
2018-09-08T12:50:53.564Z,4.50
2018-09-08T12:53:24.110Z,3.70
2018-09-08T12:55:54.920Z,3.80
2018-09-08T12:58:25.484Z,4.23
2018-09-08T13:00:56.273Z,4.07
2018-09-08T13:03:26.881Z,4.00
2018-09-08T13:05:57.507Z,3.27
2018-09-08T13:08:27.818Z,3.20
2018-09-08T13:10:58.392Z,3.07
2018-09-08T13:13:29.530Z,2.83
2018-09-08T13:16:00.406Z,3.60
2018-09-08T13:18:35.918Z,2.97
2018-09-08T13:21:06.678Z,3.30
2018-09-08T13:23:37.142Z,3.53
2018-09-08T13:26:08.206Z,3.70
2018-09-08T13:28:38.428Z,3.63
2018-09-08T13:31:12.103Z,3.23
2018-09-08T13:33:42.674Z,4.00
2018-09-08T13:36:14.529Z,3.73
2018-09-08T13:38:45.297Z,3.43
2018-09-08T13:41:16.110Z,3.80
2018-09-08T13:43:47.255Z,3.73
2018-09-08T13:46:17.460Z,3.50
2018-09-08T13:48:48.248Z,3.43
2018-09-08T13:51:18.784Z,3.70
2018-09-08T13:53:49.268Z,3.23
2018-09-08T13:56:20.105Z,3.70
2018-09-08T13:58:50.920Z,3.07
2018-09-08T14:01:21.178Z,3.87
2018-09-08T14:03:51.892Z,4.47
2018-09-08T14:06:22.116Z,4.03
2018-09-08T14:08:52.932Z,3.57
2018-09-08T14:11:26.825Z,4.50
2018-09-08T14:13:57.734Z,3.33
2018-09-08T14:16:28.268Z,3.97
2018-09-08T14:18:58.523Z,3.97
2018-09-08T14:21:29.221Z,3.77
2018-09-08T14:23:59.708Z,3.90
2018-09-08T14:26:30.071Z,5.50
2018-09-08T14:29:01.508Z,4.30
2018-09-08T14:31:32.200Z,4.20
2018-09-08T14:34:03.032Z,4.40
2018-09-08T14:36:33.550Z,4.30
2018-09-08T14:39:05.747Z,4.27
2018-09-08T14:41:36.364Z,4.27
2018-09-08T14:44:07.119Z,4.60
2018-09-08T14:46:37.620Z,4.27
2018-09-08T14:49:08.252Z,4.40
2018-09-08T14:51:39.225Z,4.40
2018-09-08T14:54:10.248Z,4.87
2018-09-08T14:56:41.003Z,5.30
2018-09-08T14:59:11.903Z,4.67
2018-09-08T15:01:42.124Z,5.07
2018-09-08T15:04:12.997Z,5.10
2018-09-08T15:06:43.540Z,4.83
2018-09-08T15:09:14.048Z,4.70
2018-09-08T15:11:46.430Z,5.40
2018-09-08T15:14:16.973Z,4.60
2018-09-08T15:16:48.305Z,5.00
2018-09-08T15:19:19.542Z,4.47
2018-09-08T15:21:50.217Z,5.10
2018-09-08T15:24:20.890Z,4.63
2018-09-08T15:26:51.800Z,4.70
2018-09-08T15:29:22.349Z,4.70
2018-09-08T15:31:52.577Z,4.20
2018-09-08T15:34:23.053Z,5.10
2018-09-08T15:36:53.711Z,4.70
2018-09-08T15:39:24.219Z,4.27
2018-09-08T15:41:54.832Z,4.80
2018-09-08T15:44:25.357Z,5.23
2018-09-08T15:46:56.770Z,4.83
2018-09-08T15:49:27.372Z,4.70
2018-09-08T15:51:57.929Z,4.80
2018-09-08T15:54:28.532Z,4.43
2018-09-08T15:56:59.174Z,5.10
2018-09-08T15:59:29.725Z,4.27
2018-09-08T16:02:01.016Z,4.17
2018-09-08T16:04:31.654Z,3.90
2018-09-08T16:07:02.341Z,4.57
2018-09-08T16:09:32.596Z,4.97
2018-09-08T16:12:02.804Z,4.50
2018-09-08T16:14:33.087Z,3.90
2018-09-08T16:17:03.587Z,4.70
2018-09-08T16:19:34.092Z,4.13
2018-09-08T16:22:04.332Z,4.00
2018-09-08T16:24:34.888Z,3.60
2018-09-08T16:27:05.685Z,4.03
2018-09-08T16:29:36.346Z,5.00
2018-09-08T16:32:07.021Z,4.43
2018-09-08T16:34:37.296Z,3.80
2018-09-08T16:37:08.017Z,3.93
2018-09-08T16:39:38.716Z,4.40
2018-09-08T16:42:09.297Z,4.70
2018-09-08T16:44:39.760Z,4.40
2018-09-08T16:47:10.188Z,4.63
2018-09-08T16:49:40.743Z,4.60
2018-09-08T16:52:13.314Z,4.30
2018-09-08T16:54:44.105Z,4.60
2018-09-08T16:57:14.682Z,4.37
2018-09-08T16:59:47.053Z,4.63
2018-09-08T17:02:18.664Z,4.70
2018-09-08T17:04:49.546Z,4.90
2018-09-08T17:07:20.047Z,6.17
2018-09-08T17:09:50.819Z,6.73
2018-09-08T17:12:21.432Z,6.10
2018-09-08T17:14:52.013Z,5.20
2018-09-08T17:17:22.680Z,6.70
2018-09-08T17:19:53.204Z,5.53
2018-09-08T17:22:25.000Z,5.27
2018-09-08T17:24:55.605Z,4.80
2018-09-08T17:27:26.074Z,4.80
2018-09-08T17:29:56.568Z,4.70
2018-09-08T17:32:27.961Z,5.77
2018-09-08T17:34:58.621Z,6.20
2018-09-08T17:37:29.168Z,4.90
2018-09-08T17:40:11.957Z,5.43
2018-09-08T17:42:42.499Z,5.70
2018-09-08T17:45:15.317Z,5.70
2018-09-08T17:47:46.896Z,5.13
2018-09-08T17:50:17.985Z,6.00
2018-09-08T17:52:48.831Z,5.40
2018-09-08T17:55:20.527Z,5.67
2018-09-08T17:57:51.286Z,5.30
2018-09-08T18:00:23.638Z,5.40
2018-09-08T18:02:54.749Z,5.30
2018-09-08T18:05:25.691Z,5.00
2018-09-08T18:07:56.056Z,5.80
2018-09-08T18:10:27.268Z,5.93
2018-09-08T18:12:57.488Z,5.30
2018-09-08T18:15:27.954Z,6.50
2018-09-08T18:17:59.469Z,5.93
2018-09-08T18:20:34.435Z,5.90
2018-09-08T18:23:05.429Z,5.87
2018-09-08T18:25:36.491Z,6.33
2018-09-08T18:28:15.289Z,5.97
2018-09-08T18:30:46.366Z,6.87
2018-09-08T18:33:16.913Z,6.67
2018-09-08T18:35:48.453Z,5.80
2018-09-08T18:38:19.620Z,6.83
2018-09-08T18:40:50.516Z,5.77
2018-09-08T18:43:21.594Z,6.73
2018-09-08T18:45:52.361Z,7.33
2018-09-08T18:48:22.961Z,6.53
2018-09-08T18:50:53.956Z,6.10
2018-09-08T18:53:25.353Z,5.60
2018-09-08T18:55:55.924Z,6.40
2018-09-08T18:58:26.448Z,6.03
2018-09-08T19:00:56.957Z,6.33
2018-09-08T19:03:27.386Z,6.77
2018-09-08T19:05:57.957Z,6.07
2018-09-08T19:08:33.491Z,6.33
2018-09-08T19:11:03.720Z,6.10
2018-09-08T19:13:34.477Z,6.00
2018-09-08T19:16:05.015Z,6.80
2018-09-08T19:18:35.222Z,7.40
2018-09-08T19:21:05.830Z,6.70
2018-09-08T19:23:36.248Z,9.57
2018-09-08T19:26:06.843Z,6.73
2018-09-08T19:28:38.118Z,7.97
2018-09-08T19:31:11.305Z,7.07
2018-09-08T19:33:41.882Z,7.30
2018-09-08T19:36:12.996Z,7.37
2018-09-08T19:38:43.220Z,5.90
2018-09-08T19:41:13.757Z,6.27
2018-09-08T19:43:44.466Z,6.63
2018-09-08T19:46:20.477Z,6.23
2018-09-08T19:48:51.115Z,6.87
2018-09-08T19:51:22.553Z,6.50
2018-09-08T19:53:58.312Z,6.70
2018-09-08T19:56:34.276Z,6.70
2018-09-08T19:59:05.219Z,6.00
2018-09-08T20:01:35.969Z,6.03
2018-09-08T20:04:09.468Z,6.93
2018-09-08T20:06:39.761Z,5.50
2018-09-08T20:09:10.019Z,5.83
2018-09-08T20:11:40.832Z,7.10
2018-09-08T20:14:11.556Z,7.60
2018-09-08T20:16:42.292Z,6.77
2018-09-08T20:19:13.294Z,6.40
2018-09-08T20:21:44.565Z,7.33
2018-09-08T20:24:16.590Z,7.13
2018-09-08T20:26:47.465Z,7.37
2018-09-08T20:29:17.766Z,6.63
2018-09-08T20:31:49.203Z,6.73
2018-09-08T20:34:19.961Z,6.20
2018-09-08T20:36:50.580Z,6.17
2018-09-08T20:39:21.362Z,6.80
2018-09-08T20:41:52.287Z,6.53
2018-09-08T20:44:23.859Z,6.07
2018-09-08T20:46:54.263Z,6.07
2018-09-08T20:49:25.261Z,7.00
2018-09-08T20:51:56.439Z,6.17
2018-09-08T20:54:27.033Z,6.73
2018-09-08T20:56:57.560Z,6.40
2018-09-08T20:59:28.186Z,6.40
2018-09-08T21:01:58.426Z,6.60
2018-09-08T21:04:28.941Z,7.37
2018-09-08T21:06:59.857Z,7.40
2018-09-08T21:09:30.774Z,7.33
2018-09-08T21:12:01.397Z,7.20
2018-09-08T21:14:32.193Z,8.03
2018-09-08T21:17:02.739Z,7.23
2018-09-08T21:19:33.229Z,6.67
2018-09-08T21:22:04.059Z,6.20
2018-09-08T21:24:36.933Z,6.90
2018-09-08T21:27:08.477Z,6.60
2018-09-08T21:29:38.714Z,6.70
2018-09-08T21:32:09.280Z,5.73
2018-09-08T21:34:39.786Z,5.90
2018-09-08T21:37:10.266Z,6.43
2018-09-08T21:39:40.845Z,7.67
2018-09-08T21:42:11.640Z,7.43
2018-09-08T21:44:43.010Z,6.90
2018-09-08T21:47:13.524Z,6.70
2018-09-08T21:49:44.343Z,7.90
2018-09-08T21:52:15.081Z,6.87
2018-09-08T21:54:46.696Z,6.97
2018-09-08T21:57:17.283Z,6.90
2018-09-08T21:59:48.115Z,6.60
2018-09-08T22:02:18.650Z,7.13
2018-09-08T22:04:48.972Z,6.47
2018-09-08T22:07:19.514Z,6.50
2018-09-08T22:09:50.052Z,7.33
2018-09-08T22:12:21.112Z,7.03
2018-09-08T22:14:51.715Z,7.87
2018-09-08T22:17:22.228Z,7.50
2018-09-08T22:19:52.441Z,7.13
2018-09-08T22:22:23.739Z,5.43
2018-09-08T22:24:54.339Z,6.37
2018-09-08T22:27:24.896Z,7.10
2018-09-08T22:29:55.488Z,5.20
2018-09-08T22:32:25.899Z,6.80
2018-09-08T22:34:59.839Z,6.70
2018-09-08T22:37:30.380Z,6.80
2018-09-08T22:40:02.675Z,6.60
2018-09-08T22:42:42.150Z,6.53
2018-09-08T22:45:12.621Z,8.20
2018-09-08T22:47:43.104Z,7.97
2018-09-08T22:50:15.450Z,6.53
2018-09-08T22:52:45.956Z,7.00
2018-09-08T22:55:16.435Z,7.07
2018-09-08T22:57:46.913Z,6.87
2018-09-08T23:00:17.940Z,7.00
2018-09-08T23:02:49.469Z,6.80
2018-09-08T23:05:20.297Z,6.83
2018-09-08T23:07:51.185Z,7.17
2018-09-08T23:10:21.731Z,6.47
2018-09-08T23:12:52.652Z,6.00
2018-09-08T23:15:23.172Z,6.37
2018-09-08T23:17:53.621Z,6.00
2018-09-08T23:20:24.380Z,6.70
2018-09-08T23:22:55.273Z,6.67
2018-09-08T23:25:25.491Z,6.20
2018-09-08T23:27:55.749Z,5.90
2018-09-08T23:30:26.004Z,6.37
2018-09-08T23:32:56.766Z,4.90
2018-09-08T23:35:27.652Z,5.60
2018-09-08T23:37:58.165Z,4.47
2018-09-08T23:40:28.696Z,5.77
2018-09-08T23:42:59.190Z,5.37
2018-09-08T23:45:29.702Z,4.73
2018-09-08T23:47:59.977Z,5.27
2018-09-08T23:50:31.029Z,5.27
2018-09-08T23:53:02.886Z,5.30
2018-09-08T23:55:33.109Z,5.53
2018-09-08T23:58:03.601Z,5.20
